createdAt,value
2023-05-06T00:01:24.376Z,79.60
2023-05-06T00:03:51.699Z,78.26
2023-05-06T00:06:18.840Z,77.86
2023-05-06T00:08:46.707Z,78.33
2023-05-06T00:11:13.889Z,78.46
2023-05-06T00:13:42.149Z,78.38
2023-05-06T00:16:09.475Z,79.49
2023-05-06T00:18:36.483Z,79.07
2023-05-06T00:21:03.377Z,79.06
2023-05-06T00:23:30.492Z,78.02
2023-05-06T00:25:57.376Z,78.82
2023-05-06T00:28:24.235Z,78.83
2023-05-06T00:30:52.540Z,77.48
2023-05-06T00:33:19.392Z,78.76
2023-05-06T00:35:46.291Z,78.41
2023-05-06T00:38:15.272Z,78.06
2023-05-06T00:40:42.928Z,77.80
2023-05-06T00:43:10.066Z,77.94
2023-05-06T00:45:37.172Z,78.33
2023-05-06T00:48:06.935Z,78.14
2023-05-06T00:50:34.814Z,78.82
2023-05-06T00:53:03.717Z,78.30
2023-05-06T00:55:31.156Z,78.67
2023-05-06T00:57:58.375Z,78.56
2023-05-06T01:00:25.692Z,77.93
2023-05-06T01:02:52.765Z,77.80
2023-05-06T01:05:22.935Z,78.82
2023-05-06T01:07:56.219Z,78.83
2023-05-06T01:10:29.230Z,79.51
2023-05-06T01:13:01.365Z,79.56
2023-05-06T01:15:34.258Z,80.86
2023-05-06T01:18:02.407Z,80.74
2023-05-06T01:20:31.838Z,80.84
2023-05-06T01:23:02.131Z,80.06
2023-05-06T01:25:32.291Z,80.63
2023-05-06T01:27:59.234Z,80.72
2023-05-06T01:30:31.197Z,80.69
2023-05-06T01:33:03.389Z,79.91
2023-05-06T01:35:36.343Z,80.52
2023-05-06T01:38:11.202Z,81.42
2023-05-06T01:40:41.418Z,81.20
2023-05-06T01:43:08.842Z,80.87
2023-05-06T01:45:36.879Z,80.04
2023-05-06T01:48:04.596Z,80.37
2023-05-06T01:50:32.621Z,80.17
2023-05-06T01:53:02.232Z,81.62
2023-05-06T01:55:29.544Z,81.04
2023-05-06T01:57:57.896Z,80.94
2023-05-06T02:00:25.520Z,80.68
2023-05-06T02:02:52.828Z,80.00
2023-05-06T02:05:20.794Z,80.42
2023-05-06T02:07:51.807Z,80.66
2023-05-06T02:10:19.565Z,80.23
2023-05-06T02:12:52.134Z,80.55
2023-05-06T02:15:20.624Z,81.75
2023-05-06T02:17:48.313Z,82.02
2023-05-06T02:20:15.304Z,82.09
2023-05-06T02:22:42.201Z,81.51
2023-05-06T02:25:10.085Z,82.35
2023-05-06T02:27:37.679Z,81.97
2023-05-06T02:30:06.271Z,82.59
2023-05-06T02:32:34.582Z,82.71
2023-05-06T02:35:01.597Z,82.16
2023-05-06T02:37:28.657Z,82.50
2023-05-06T02:39:55.603Z,82.62
2023-05-06T02:42:22.501Z,81.80
2023-05-06T02:44:49.482Z,82.23
2023-05-06T02:47:16.461Z,82.25
2023-05-06T02:49:46.019Z,81.60
2023-05-06T02:52:12.984Z,82.58
2023-05-06T02:54:39.974Z,82.59
2023-05-06T02:57:06.867Z,81.88
2023-05-06T02:59:35.981Z,81.57
2023-05-06T03:02:03.039Z,81.82
2023-05-06T03:04:30.008Z,82.28
2023-05-06T03:06:58.345Z,82.17
2023-05-06T03:09:25.516Z,82.33
2023-05-06T03:11:53.079Z,81.95
2023-05-06T03:14:21.412Z,82.40
2023-05-06T03:16:49.310Z,83.24
2023-05-06T03:19:16.399Z,82.19
2023-05-06T03:21:44.813Z,83.42
2023-05-06T03:24:13.297Z,83.53
2023-05-06T03:26:40.196Z,83.13
2023-05-06T03:29:08.612Z,83.36
2023-05-06T03:31:36.209Z,83.35
2023-05-06T03:34:03.279Z,83.69
2023-05-06T03:36:31.697Z,83.13
2023-05-06T03:38:58.807Z,82.58
2023-05-06T03:41:28.358Z,81.94
2023-05-06T03:43:55.891Z,81.70
2023-05-06T03:46:26.323Z,82.50
2023-05-06T03:48:53.735Z,82.10
2023-05-06T03:51:21.115Z,82.70
2023-05-06T03:53:48.152Z,83.04
2023-05-06T03:56:18.139Z,83.09
2023-05-06T03:58:49.047Z,83.43
2023-05-06T04:01:18.222Z,83.17
2023-05-06T04:03:45.280Z,83.65
2023-05-06T04:06:12.923Z,83.50
2023-05-06T04:08:39.906Z,83.60
2023-05-06T04:11:07.135Z,83.41
2023-05-06T04:13:35.126Z,82.88
2023-05-06T04:16:07.805Z,83.59
2023-05-06T04:18:39.811Z,83.17
2023-05-06T04:21:13.377Z,82.88
2023-05-06T04:23:42.766Z,82.49
2023-05-06T04:26:11.634Z,82.00
2023-05-06T04:28:41.262Z,82.32
2023-05-06T04:31:11.086Z,82.30
2023-05-06T04:33:44.977Z,82.19
2023-05-06T04:36:15.926Z,81.68
2023-05-06T04:38:53.290Z,81.33
2023-05-06T04:41:20.793Z,81.52
2023-05-06T04:43:47.770Z,81.77
2023-05-06T04:46:21.612Z,81.09
2023-05-06T04:48:49.270Z,80.74
2023-05-06T04:51:18.030Z,79.95
2023-05-06T04:53:45.668Z,78.55
2023-05-06T04:56:12.815Z,79.10
2023-05-06T04:58:39.825Z,78.97
2023-05-06T05:01:08.839Z,77.93
2023-05-06T05:03:37.304Z,77.55
2023-05-06T05:06:05.989Z,74.92
2023-05-06T05:08:33.044Z,75.02
2023-05-06T05:11:00.982Z,75.77
2023-05-06T05:13:29.544Z,74.09
2023-05-06T05:15:57.068Z,72.78
2023-05-06T05:18:29.250Z,71.92
2023-05-06T05:21:02.344Z,70.31
2023-05-06T05:23:30.112Z,69.99
2023-05-06T05:25:57.091Z,69.54
2023-05-06T05:28:24.454Z,69.15
2023-05-06T05:30:52.288Z,69.35
2023-05-06T05:33:19.748Z,69.24
2023-05-06T05:35:46.970Z,68.66
2023-05-06T05:38:16.670Z,69.09
2023-05-06T05:40:44.255Z,68.35
2023-05-06T05:43:11.527Z,67.63
2023-05-06T05:45:40.943Z,67.97
2023-05-06T05:48:09.696Z,66.26
2023-05-06T05:50:36.726Z,66.81
2023-05-06T05:53:05.652Z,66.59
2023-05-06T05:55:36.980Z,65.66
2023-05-06T05:58:04.024Z,66.37
2023-05-06T06:00:32.748Z,66.72
2023-05-06T06:03:06.907Z,64.24
2023-05-06T06:05:33.981Z,65.50
2023-05-06T06:08:03.544Z,65.58
2023-05-06T06:10:31.301Z,66.69
2023-05-06T06:13:03.182Z,66.88
2023-05-06T06:15:32.740Z,65.28
2023-05-06T06:17:59.745Z,65.19
2023-05-06T06:20:28.597Z,65.98
2023-05-06T06:22:55.577Z,65.17
2023-05-06T06:25:22.614Z,64.47
2023-05-06T06:27:49.542Z,63.71
2023-05-06T06:30:17.906Z,64.80
2023-05-06T06:32:47.637Z,64.62
2023-05-06T06:35:14.912Z,64.47
2023-05-06T06:37:41.899Z,64.01
2023-05-06T06:40:10.437Z,64.87
2023-05-06T06:42:37.908Z,64.34
2023-05-06T06:45:22.257Z,64.91
2023-05-06T06:47:49.195Z,64.80
2023-05-06T06:50:16.390Z,64.52
2023-05-06T06:52:43.297Z,65.77
2023-05-06T06:55:10.475Z,65.82
2023-05-06T06:57:39.118Z,66.03
2023-05-06T07:00:12.047Z,65.78
2023-05-06T07:02:40.635Z,65.18
2023-05-06T07:05:08.292Z,65.25
2023-05-06T07:07:35.475Z,65.46
2023-05-06T07:10:02.375Z,65.18
2023-05-06T07:12:29.264Z,64.35
2023-05-06T07:14:56.143Z,63.54
2023-05-06T07:17:23.386Z,62.68
2023-05-06T07:19:51.858Z,61.06
2023-05-06T07:22:18.789Z,59.76
2023-05-06T07:24:45.829Z,60.08
2023-05-06T07:27:12.810Z,58.10
2023-05-06T07:29:39.718Z,58.06
2023-05-06T07:32:06.672Z,58.04
2023-05-06T07:34:34.634Z,57.98
2023-05-06T07:37:03.967Z,57.93
2023-05-06T07:39:31.225Z,56.90
2023-05-06T07:41:58.368Z,56.66
2023-05-06T07:44:25.360Z,58.77
2023-05-06T07:46:52.416Z,56.07
2023-05-06T07:49:19.497Z,56.80
2023-05-06T07:51:46.397Z,55.73
2023-05-06T07:54:14.786Z,55.75
2023-05-06T07:56:41.714Z,55.54
2023-05-06T07:59:08.638Z,55.47
2023-05-06T08:01:36.113Z,56.24
2023-05-06T08:04:03.140Z,56.14
2023-05-06T08:06:30.237Z,55.36
2023-05-06T08:08:57.122Z,53.96
2023-05-06T08:11:25.469Z,53.32
2023-05-06T08:13:52.375Z,50.32
2023-05-06T08:16:19.310Z,50.69
2023-05-06T08:18:46.235Z,50.48
2023-05-06T08:21:13.152Z,48.69
2023-05-06T08:23:40.092Z,51.25
2023-05-06T08:26:07.074Z,49.49
2023-05-06T08:28:35.415Z,49.75
2023-05-06T08:31:02.282Z,48.46
2023-05-06T08:33:30.763Z,48.80
2023-05-06T08:35:58.127Z,48.63
2023-05-06T08:38:26.072Z,48.36
2023-05-06T08:40:54.468Z,48.21
2023-05-06T08:43:22.325Z,49.46
2023-05-06T08:45:50.790Z,49.58
2023-05-06T08:48:18.115Z,49.17
2023-05-06T08:50:45.289Z,48.24
2023-05-06T08:53:13.527Z,47.64
2023-05-06T08:55:41.541Z,46.36
2023-05-06T08:58:08.382Z,46.93
2023-05-06T09:00:35.614Z,44.40
2023-05-06T09:03:04.329Z,43.55
2023-05-06T09:05:31.350Z,43.55
2023-05-06T09:07:58.286Z,44.38
2023-05-06T09:10:25.205Z,46.39
2023-05-06T09:12:54.473Z,46.29
2023-05-06T09:15:25.036Z,45.50
2023-05-06T09:17:52.986Z,44.79
2023-05-06T09:20:21.095Z,45.86
2023-05-06T09:22:48.072Z,43.87
2023-05-06T09:25:15.012Z,43.44
2023-05-06T09:27:41.963Z,43.87
2023-05-06T09:30:12.128Z,43.32
2023-05-06T09:32:40.528Z,42.56
2023-05-06T09:35:09.394Z,43.18
2023-05-06T09:37:38.003Z,44.46
2023-05-06T09:40:06.079Z,45.76
2023-05-06T09:42:33.457Z,45.92
2023-05-06T09:45:02.312Z,44.43
2023-05-06T09:47:33.240Z,44.54
2023-05-06T09:50:01.309Z,43.45
2023-05-06T09:52:28.986Z,43.78
2023-05-06T09:54:57.396Z,43.62
2023-05-06T09:57:24.616Z,43.02
2023-05-06T09:59:54.604Z,42.94
2023-05-06T10:02:23.304Z,43.37
2023-05-06T10:04:51.517Z,45.77
2023-05-06T10:07:22.929Z,43.63
2023-05-06T10:09:51.461Z,44.48
2023-05-06T10:12:20.413Z,46.40
2023-05-06T10:14:47.482Z,47.98
2023-05-06T10:17:14.780Z,44.93
2023-05-06T10:19:45.047Z,44.52
2023-05-06T10:22:16.747Z,42.95
2023-05-06T10:24:48.218Z,40.96
2023-05-06T10:27:18.913Z,41.78
2023-05-06T10:29:46.550Z,40.22
2023-05-06T10:32:13.736Z,42.25
2023-05-06T10:34:47.864Z,40.45
2023-05-06T10:37:15.456Z,41.37
2023-05-06T10:39:42.518Z,38.72
2023-05-06T10:42:10.622Z,40.61
2023-05-06T10:44:58.040Z,39.05
2023-05-06T10:47:25.210Z,37.86
2023-05-06T10:50:23.463Z,39.38
2023-05-06T10:52:52.526Z,38.12
2023-05-06T10:55:30.443Z,37.85
2023-05-06T10:57:59.467Z,37.95
2023-05-06T11:00:31.079Z,38.71
2023-05-06T11:02:58.984Z,36.12
2023-05-06T11:05:26.010Z,36.11
2023-05-06T11:07:53.297Z,35.51
2023-05-06T11:10:33.074Z,32.98
2023-05-06T11:13:19.202Z,34.60
2023-05-06T11:15:50.837Z,33.57
2023-05-06T11:18:42.998Z,33.35
2023-05-06T11:21:38.160Z,34.82
2023-05-06T11:24:09.359Z,33.19
2023-05-06T11:26:36.420Z,32.83
2023-05-06T11:29:04.346Z,32.68
2023-05-06T11:31:39.904Z,34.29
2023-05-06T11:34:09.128Z,33.19
2023-05-06T11:36:37.312Z,33.08
2023-05-06T11:39:10.140Z,32.36
2023-05-06T11:41:39.704Z,34.36
2023-05-06T11:44:06.710Z,33.43
2023-05-06T11:46:35.524Z,34.14
2023-05-06T11:49:02.517Z,33.09
2023-05-06T11:51:29.412Z,32.84
2023-05-06T11:54:05.752Z,33.45
2023-05-06T11:56:45.555Z,33.33
2023-05-06T11:59:12.843Z,31.59
2023-05-06T12:01:43.522Z,31.79
2023-05-06T12:04:11.438Z,33.78
2023-05-06T12:06:39.043Z,32.70
2023-05-06T12:09:07.770Z,32.92
2023-05-06T12:11:35.518Z,33.46
2023-05-06T12:14:02.719Z,32.94
2023-05-06T12:16:29.952Z,31.78
2023-05-06T12:18:58.296Z,32.84
2023-05-06T12:21:25.343Z,32.76
2023-05-06T12:23:53.035Z,32.02
2023-05-06T12:26:20.412Z,30.93
2023-05-06T12:28:47.306Z,32.39
2023-05-06T12:31:21.108Z,32.22
2023-05-06T12:33:51.481Z,33.04
2023-05-06T12:36:19.890Z,33.08
2023-05-06T12:38:51.273Z,33.54
2023-05-06T12:41:18.787Z,31.73
2023-05-06T12:43:45.789Z,31.37
2023-05-06T12:46:14.505Z,29.30
2023-05-06T12:48:42.392Z,30.41
2023-05-06T12:51:20.912Z,30.44
2023-05-06T12:53:47.869Z,30.46
2023-05-06T12:56:14.788Z,31.00
2023-05-06T12:58:41.813Z,32.03
2023-05-06T13:01:08.747Z,31.38
2023-05-06T13:03:38.361Z,31.49
2023-05-06T13:06:05.932Z,31.71
2023-05-06T13:08:34.190Z,31.49
2023-05-06T13:11:02.522Z,31.23
2023-05-06T13:13:29.588Z,31.99
2023-05-06T13:15:56.636Z,33.42
2023-05-06T13:18:23.587Z,33.67
2023-05-06T13:20:51.320Z,34.20
2023-05-06T13:23:19.553Z,35.34
2023-05-06T13:26:02.825Z,35.27
2023-05-06T13:28:32.782Z,36.39
2023-05-06T13:30:59.886Z,36.25
2023-05-06T13:33:26.865Z,36.95
2023-05-06T13:35:53.764Z,37.17
2023-05-06T13:38:21.100Z,37.97
2023-05-06T13:40:51.558Z,38.68
2023-05-06T13:43:18.686Z,37.83
2023-05-06T13:45:45.848Z,38.33
2023-05-06T13:48:12.998Z,38.93
2023-05-06T13:50:41.568Z,37.86
2023-05-06T13:53:08.479Z,37.74
2023-05-06T13:55:36.245Z,37.27
2023-05-06T13:58:05.580Z,36.93
2023-05-06T14:00:32.609Z,36.70
2023-05-06T14:02:59.666Z,36.40
2023-05-06T14:05:26.798Z,35.40
2023-05-06T14:07:53.949Z,35.08
2023-05-06T14:10:21.132Z,34.88
2023-05-06T14:12:48.356Z,34.30
2023-05-06T14:15:16.766Z,34.22
2023-05-06T14:17:43.773Z,32.76
2023-05-06T14:20:11.475Z,33.09
2023-05-06T14:22:40.892Z,32.84
2023-05-06T14:25:09.402Z,33.25
2023-05-06T14:27:36.818Z,33.61
2023-05-06T14:30:09.456Z,33.68
2023-05-06T14:32:38.298Z,34.52
2023-05-06T14:35:06.405Z,34.16
2023-05-06T14:37:33.271Z,34.66
2023-05-06T14:40:00.289Z,35.80
2023-05-06T14:42:27.175Z,35.78
2023-05-06T14:44:55.039Z,35.37
2023-05-06T14:47:21.771Z,35.73
2023-05-06T14:49:50.379Z,36.15
2023-05-06T14:52:17.367Z,36.88
2023-05-06T14:54:44.827Z,36.15
2023-05-06T14:57:12.294Z,36.39
2023-05-06T14:59:39.315Z,37.63
2023-05-06T15:02:08.601Z,38.19
2023-05-06T15:04:36.256Z,37.51
2023-05-06T15:07:04.686Z,38.49
2023-05-06T15:09:31.616Z,38.67
2023-05-06T15:11:58.581Z,38.36
2023-05-06T15:14:25.467Z,38.21
2023-05-06T15:16:54.884Z,38.76
2023-05-06T15:19:21.951Z,38.40
2023-05-06T15:21:48.880Z,37.80
2023-05-06T15:24:17.230Z,38.60
2023-05-06T15:26:44.193Z,38.71
2023-05-06T15:29:11.130Z,38.76
2023-05-06T15:31:41.285Z,38.05
2023-05-06T15:34:09.582Z,37.31
2023-05-06T15:36:36.816Z,38.00
2023-05-06T15:39:04.024Z,35.59
2023-05-06T15:41:33.975Z,35.21
2023-05-06T15:44:02.688Z,34.69
2023-05-06T15:46:30.782Z,34.16
2023-05-06T15:49:17.823Z,33.32
2023-05-06T15:51:44.888Z,32.28
2023-05-06T15:54:11.736Z,32.61
2023-05-06T15:56:41.578Z,31.64
2023-05-06T15:59:08.845Z,31.56
2023-05-06T16:02:18.907Z,31.40
2023-05-06T16:04:23.654Z,31.05
2023-05-06T16:06:50.656Z,31.72
2023-05-06T16:09:17.998Z,31.26
2023-05-06T16:11:46.266Z,31.73
2023-05-06T16:14:13.162Z,31.47
2023-05-06T16:16:40.158Z,31.64
2023-05-06T16:19:07.671Z,32.48
2023-05-06T16:21:34.634Z,32.29
2023-05-06T16:24:02.539Z,32.65
2023-05-06T16:26:29.588Z,32.37
2023-05-06T16:28:59.565Z,31.97
2023-05-06T16:31:26.880Z,32.68
2023-05-06T16:33:53.775Z,32.84
2023-05-06T16:36:20.690Z,33.05
2023-05-06T16:38:47.708Z,32.65
2023-05-06T16:41:14.542Z,33.24
2023-05-06T16:43:41.569Z,33.57
2023-05-06T16:46:09.870Z,34.11
2023-05-06T16:48:36.821Z,33.99
2023-05-06T16:51:04.285Z,34.10
2023-05-06T16:53:31.151Z,34.18
2023-05-06T16:55:58.173Z,34.51
2023-05-06T16:58:25.156Z,35.38
2023-05-06T17:00:54.348Z,36.78
2023-05-06T17:03:25.794Z,36.17
2023-05-06T17:05:54.339Z,37.45
2023-05-06T17:08:24.389Z,38.82
2023-05-06T17:10:53.578Z,39.90
2023-05-06T17:13:20.587Z,40.55
2023-05-06T17:15:47.500Z,41.80
2023-05-06T17:18:14.442Z,42.30
2023-05-06T17:20:54.564Z,43.18
2023-05-06T17:23:22.496Z,43.97
2023-05-06T17:25:49.463Z,44.73
2023-05-06T17:28:17.372Z,44.48
2023-05-06T17:30:45.561Z,44.64
2023-05-06T17:33:12.854Z,45.79
2023-05-06T17:35:39.995Z,46.88
2023-05-06T17:38:09.612Z,47.32
2023-05-06T17:40:36.610Z,48.95
2023-05-06T17:43:03.810Z,49.55
2023-05-06T17:45:30.877Z,49.92
2023-05-06T17:47:57.804Z,50.57
2023-05-06T17:50:24.698Z,51.52
2023-05-06T17:52:52.970Z,52.14
2023-05-06T17:55:21.890Z,52.44
2023-05-06T17:57:49.247Z,52.74
2023-05-06T18:00:17.046Z,53.77
2023-05-06T18:02:44.390Z,54.12
2023-05-06T18:05:11.902Z,54.28
2023-05-06T18:07:39.298Z,54.80
2023-05-06T18:10:07.387Z,55.10
2023-05-06T18:12:35.763Z,55.78
2023-05-06T18:15:02.881Z,56.22
2023-05-06T18:17:29.815Z,56.61
2023-05-06T18:19:56.947Z,56.80
2023-05-06T18:22:23.848Z,57.02
2023-05-06T18:25:07.367Z,57.68
2023-05-06T18:27:36.120Z,57.92
2023-05-06T18:30:03.270Z,57.98
2023-05-06T18:32:30.481Z,58.01
2023-05-06T18:34:57.551Z,58.19
2023-05-06T18:37:24.494Z,58.40
2023-05-06T18:39:51.625Z,58.80
2023-05-06T18:42:18.727Z,58.86
2023-05-06T18:44:50.164Z,59.37
2023-05-06T18:47:17.632Z,58.94
2023-05-06T18:49:44.558Z,59.18
2023-05-06T18:52:14.499Z,59.36
2023-05-06T18:54:41.631Z,59.56
2023-05-06T18:57:09.064Z,59.47
2023-05-06T18:59:36.192Z,60.18
2023-05-06T19:02:05.770Z,59.78
2023-05-06T19:04:33.638Z,60.51
2023-05-06T19:07:01.180Z,60.54
2023-05-06T19:09:28.177Z,60.50
2023-05-06T19:11:55.822Z,60.65
2023-05-06T19:14:23.642Z,61.04
2023-05-06T19:16:52.366Z,61.85
2023-05-06T19:19:20.632Z,61.92
2023-05-06T19:21:47.542Z,62.07
2023-05-06T19:24:14.483Z,62.14
2023-05-06T19:26:41.479Z,61.72
2023-05-06T19:29:08.519Z,62.14
2023-05-06T19:31:35.663Z,62.44
2023-05-06T19:34:02.798Z,61.94
2023-05-06T19:36:31.801Z,62.84
2023-05-06T19:38:58.753Z,61.71
2023-05-06T19:41:25.824Z,61.67
2023-05-06T19:43:52.805Z,61.12
2023-05-06T19:46:19.752Z,60.88
2023-05-06T19:48:47.060Z,60.65
2023-05-06T19:51:13.977Z,60.44
2023-05-06T19:53:42.227Z,60.80
2023-05-06T19:56:09.688Z,59.55
2023-05-06T19:58:36.644Z,59.81
2023-05-06T20:01:03.689Z,59.65
2023-05-06T20:03:30.968Z,59.55
2023-05-06T20:05:57.979Z,59.21
2023-05-06T20:08:24.902Z,59.52
2023-05-06T20:10:53.385Z,58.85
2023-05-06T20:13:20.472Z,59.32
2023-05-06T20:15:47.649Z,58.77
2023-05-06T20:18:14.716Z,58.97
2023-05-06T20:20:42.067Z,58.72
2023-05-06T20:23:08.979Z,58.65
2023-05-06T20:25:37.324Z,59.00
2023-05-06T20:28:06.612Z,58.38
2023-05-06T20:30:33.702Z,57.94
2023-05-06T20:33:01.153Z,58.70
2023-05-06T20:35:28.184Z,58.37
2023-05-06T20:37:55.844Z,58.38
2023-05-06T20:40:22.911Z,59.02
2023-05-06T20:42:49.772Z,58.57
2023-05-06T20:45:18.207Z,59.17
2023-05-06T20:47:45.143Z,58.68
2023-05-06T20:50:17.271Z,58.47
2023-05-06T20:52:45.755Z,58.62
2023-05-06T20:55:14.667Z,59.10
2023-05-06T20:57:42.368Z,58.80
2023-05-06T21:00:10.303Z,59.61
2023-05-06T21:02:41.180Z,58.84
2023-05-06T21:05:09.371Z,59.20
2023-05-06T21:07:36.536Z,58.73
2023-05-06T21:10:05.822Z,59.75
2023-05-06T21:12:33.320Z,59.25
2023-05-06T21:15:00.762Z,59.52
2023-05-06T21:17:28.307Z,59.42
2023-05-06T21:19:56.662Z,59.76
2023-05-06T21:22:24.038Z,60.19
2023-05-06T21:24:51.280Z,60.20
2023-05-06T21:27:18.359Z,60.50
2023-05-06T21:29:45.281Z,59.56
2023-05-06T21:32:12.337Z,60.06
2023-05-06T21:34:39.347Z,61.23
2023-05-06T21:37:07.778Z,62.45
2023-05-06T21:39:34.735Z,62.22
2023-05-06T21:42:01.708Z,63.18
2023-05-06T21:44:28.677Z,62.53
2023-05-06T21:46:55.631Z,62.04
2023-05-06T21:49:22.536Z,62.20
2023-05-06T21:51:49.535Z,62.33
2023-05-06T21:54:17.948Z,61.44
2023-05-06T21:56:44.693Z,61.70
2023-05-06T21:59:11.654Z,61.35
2023-05-06T22:01:38.869Z,62.08
2023-05-06T22:04:11.110Z,63.15
2023-05-06T22:06:38.577Z,62.87
2023-05-06T22:09:09.299Z,62.34
2023-05-06T22:11:38.446Z,62.35
2023-05-06T22:14:06.591Z,62.29
2023-05-06T22:16:35.489Z,62.64
2023-05-06T22:19:03.913Z,61.99
2023-05-06T22:21:32.032Z,63.05
2023-05-06T22:23:59.165Z,62.58
2023-05-06T22:26:28.228Z,62.33
2023-05-06T22:28:56.969Z,62.63
2023-05-06T22:31:24.773Z,62.70
2023-05-06T22:33:57.854Z,63.55
2023-05-06T22:36:29.561Z,62.70
2023-05-06T22:38:56.597Z,65.00
2023-05-06T22:41:23.601Z,63.86
2023-05-06T22:43:50.644Z,64.45
2023-05-06T22:46:19.038Z,64.69
2023-05-06T22:48:46.316Z,64.82
2023-05-06T22:51:17.803Z,64.52
2023-05-06T22:53:45.287Z,64.50
2023-05-06T22:56:12.156Z,65.14
2023-05-06T22:58:39.128Z,65.09
2023-05-06T23:01:07.415Z,64.20
2023-05-06T23:03:36.051Z,65.34
2023-05-06T23:06:04.497Z,64.61
2023-05-06T23:08:31.577Z,65.46
2023-05-06T23:10:58.452Z,64.84
2023-05-06T23:13:26.533Z,65.62
2023-05-06T23:15:53.698Z,65.02
2023-05-06T23:18:20.883Z,65.80
2023-05-06T23:20:49.264Z,66.02
2023-05-06T23:23:16.166Z,65.11
2023-05-06T23:25:43.050Z,66.13
2023-05-06T23:28:10.007Z,65.56
2023-05-06T23:30:36.909Z,65.90
2023-05-06T23:33:04.082Z,66.70
2023-05-06T23:35:31.050Z,66.56
2023-05-06T23:37:59.296Z,66.50
2023-05-06T23:40:26.305Z,66.63
2023-05-06T23:42:53.171Z,67.93
2023-05-06T23:45:20.491Z,68.37
2023-05-06T23:47:47.446Z,68.54
2023-05-06T23:50:14.682Z,68.76
2023-05-06T23:52:41.829Z,68.45
2023-05-06T23:55:10.525Z,68.26
2023-05-06T23:57:37.699Z,68.03
